Wetterdaten: Woche 27.01.20 - 02.02.20 (KW5)
Datum Zeit Temp. Aussen Temp. o. S. Temp +5cm Feuchte Auss Luftdruck Regen Sonnenschein Regendauer Solar Windben Empfang
27.01.2020 00:00 5,4 C 5,0 C 4,2 C 94 % 1013,2 hPa 0,0 l/m 0,00 h 0,00 h 0 W/m 18,5 km/h (3 Bft) 98,89 %
27.01.2020 01:00 5,3 C 4,6 C 3,9 C 94 % 1012,6 hPa 0,0 l/m 0,00 h 0,00 h 0 W/m 19,6 km/h (3 Bft) 98,51 %
27.01.2020 02:00 5,3 C 4,6 C 4,0 C 95 % 1012,2 hPa 0,0 l/m 0,00 h 0,10 h 0 W/m 17,9 km/h (3 Bft) 96,44 %
27.01.2020 03:00 5,6 C 4,6 C 4,1 C 95 % 1011,6 hPa 0,0 l/m 0,00 h 0,40 h 0 W/m 19,0 km/h (3 Bft) 98,79 %
27.01.2020 04:00 6,2 C 5,6 C 4,5 C 96 % 1010,8 hPa 0,0 l/m 0,00 h 0,50 h 0 W/m 19,2 km/h (3 Bft) 97,34 %
27.01.2020 05:00 6,9 C 5,7 C 5,1 C 96 % 1010,4 hPa 0,8 l/m 0,00 h 1,00 h 0 W/m 14,7 km/h (3 Bft) 97,72 %
27.01.2020 06:00 7,4 C 6,1 C 5,6 C 97 % 1010,0 hPa 0,6 l/m 0,00 h 0,33 h 0 W/m 17,6 km/h (3 Bft) 96,65 %
27.01.2020 07:00 7,3 C 6,1 C 5,6 C 97 % 1009,7 hPa 0,0 l/m 0,00 h 0,00 h 0 W/m 18,8 km/h (3 Bft) 97,22 %
27.01.2020 08:00 7,5 C 6,6 C 5,6 C 96 % 1009,4 hPa 0,0 l/m 0,00 h 0,00 h 9 W/m 18,1 km/h (3 Bft) 98,22 %
27.01.2020 09:00 7,8 C 6,6 C 6,1 C 96 % 1009,0 hPa 0,2 l/m 0,00 h 0,43 h 20 W/m 14,7 km/h (3 Bft) 96,72 %
27.01.2020 10:00 7,8 C 6,7 C 6,3 C 97 % 1008,5 hPa 0,0 l/m 0,00 h 0,27 h 44 W/m 9,3 km/h (2 Bft) 97,01 %
27.01.2020 11:00 8,3 C 7,5 C 6,8 C 97 % 1008,0 hPa 0,0 l/m 0,00 h 0,03 h 44 W/m 15,1 km/h (3 Bft) 97,34 %
27.01.2020 12:00 8,7 C 7,2 C 6,7 C 95 % 1007,2 hPa 0,4 l/m 0,00 h 0,30 h 42 W/m 17,3 km/h (3 Bft) 97,57 %
27.01.2020 13:00 8,6 C 7,2 C 6,8 C 96 % 1006,4 hPa 0,4 l/m 0,00 h 0,47 h 42 W/m 17,5 km/h (3 Bft) 96,30 %
27.01.2020 14:00 8,6 C 7,8 C 7,2 C 97 % 1005,6 hPa 0,0 l/m 0,00 h 0,00 h 55 W/m 13,4 km/h (3 Bft) 98,65 %
27.01.2020 15:00 8,6 C 7,4 C 6,9 C 95 % 1004,9 hPa 0,0 l/m 0,00 h 0,00 h 31 W/m 20,2 km/h (4 Bft) 98,29 %
27.01.2020 16:00 8,2 C 7,4 C 6,1 C 91 % 1004,4 hPa 0,0 l/m 0,00 h 0,00 h 16 W/m 16,7 km/h (3 Bft) 95,87 %
27.01.2020 17:00 7,7 C 6,9 C 5,6 C 92 % 1003,7 hPa 0,0 l/m 0,00 h 0,00 h 0 W/m 9,8 km/h (2 Bft) 97,36 %
27.01.2020 18:00 7,1 C 6,3 C 5,2 C 92 % 1002,9 hPa 0,0 l/m 0,00 h 0,00 h 0 W/m 15,1 km/h (3 Bft) 98,60 %
27.01.2020 19:00 6,8 C 6,1 C 5,2 C 94 % 1001,8 hPa 0,0 l/m 0,00 h 0,00 h 0 W/m 22,2 km/h (4 Bft) 95,23 %
27.01.2020 20:00 6,8 C 5,7 C 5,1 C 96 % 1000,5 hPa 0,0 l/m 0,00 h 0,13 h 0 W/m 20,2 km/h (4 Bft) 97,37 %
27.01.2020 21:00 6,9 C 5,9 C 5,3 C 96 % 999,0 hPa 0,0 l/m 0,00 h 0,40 h 0 W/m 22,0 km/h (4 Bft) 96,85 %
27.01.2020 22:00 7,1 C 5,6 C 5,0 C 96 % 997,5 hPa 1,2 l/m 0,00 h 0,97 h 0 W/m 23,8 km/h (4 Bft) 96,79 %
27.01.2020 23:00 6,9 C 5,7 C 5,0 C 96 % 996,3 hPa 0,0 l/m 0,00 h 0,70 h 0 W/m 28,4 km/h (4 Bft) 96,65 %
28.01.2020 00:00 7,0 C 5,7 C 5,0 C 96 % 995,8 hPa 0,4 l/m 0,00 h 0,60 h 0 W/m 14,3 km/h (3 Bft) 92,44 %
28.01.2020 01:00 7,0 C 6,1 C 5,4 C 97 % 995,1 hPa 0,0 l/m 0,00 h 0,20 h 0 W/m 20,8 km/h (4 Bft) 97,29 %
28.01.2020 02:00 7,4 C 6,6 C 5,8 C 94 % 994,6 hPa 0,2 l/m 0,00 h 0,30 h 0 W/m 26,4 km/h (4 Bft) 97,34 %
28.01.2020 03:00 6,4 C 4,7 C 4,2 C 93 % 995,0 hPa 0,4 l/m 0,00 h 1,00 h 0 W/m 24,5 km/h (4 Bft) 96,80 %
28.01.2020 04:00 5,7 C 4,4 C 3,9 C 95 % 994,2 hPa 0,0 l/m 0,00 h 0,87 h 0 W/m 16,9 km/h (3 Bft) 97,35 %
28.01.2020 05:00 5,7 C 4,4 C 3,9 C 96 % 993,2 hPa 0,2 l/m 0,00 h 0,20 h 0 W/m 14,9 km/h (3 Bft) 97,30 %
28.01.2020 06:00 5,8 C 4,9 C 4,3 C 96 % 992,1 hPa 0,0 l/m 0,00 h 0,20 h 0 W/m 16,6 km/h (3 Bft) 95,37 %
28.01.2020 07:00 5,7 C 3,9 C 3,5 C 94 % 991,5 hPa 2,2 l/m 0,00 h 0,83 h 0 W/m 28,3 km/h (4 Bft) 99,48 %
28.01.2020 08:00 4,9 C 3,6 C 3,1 C 95 % 991,1 hPa 0,6 l/m 0,00 h 0,33 h 7 W/m 22,9 km/h (4 Bft) 97,03 %
28.01.2020 09:00 5,1 C 4,2 C 3,4 C 94 % 991,4 hPa 0,0 l/m 0,00 h 0,00 h 32 W/m 24,3 km/h (4 Bft) 94,45 %
28.01.2020 10:00 5,3 C 4,8 C 3,4 C 91 % 992,2 hPa 0,0 l/m 0,00 h 0,00 h 44 W/m 28,1 km/h (4 Bft) 99,52 %
28.01.2020 11:00 5,1 C 4,5 C 3,2 C 89 % 993,5 hPa 0,0 l/m 0,00 h 0,67 h 68 W/m 31,4 km/h (5 Bft) 97,09 %
28.01.2020 12:00 4,7 C 3,6 C 2,9 C 92 % 994,5 hPa 1,4 l/m 0,13 h 0,77 h 88 W/m 24,7 km/h (4 Bft) 96,62 %
28.01.2020 13:00 5,5 C 5,0 C 3,8 C 88 % 995,0 hPa 0,0 l/m 0,27 h 0,03 h 163 W/m 32,2 km/h (5 Bft) 97,37 %
28.01.2020 14:00 4,8 C 3,1 C 2,6 C 87 % 996,4 hPa 1,0 l/m 0,00 h 0,35 h 69 W/m 21,3 km/h (4 Bft) 96,06 %
28.01.2020 15:00 4,7 C 4,6 C 3,2 C 91 % 997,3 hPa 0,0 l/m 0,67 h 0,10 h 161 W/m 19,4 km/h (3 Bft) 97,78 %
28.01.2020 16:00 4,8 C 4,1 C 3,3 C 87 % 998,0 hPa 0,2 l/m 0,10 h 0,23 h 29 W/m 21,8 km/h (4 Bft) 98,22 %
28.01.2020 17:00 4,4 C 3,6 C 2,8 C 83 % 998,9 hPa 0,0 l/m 0,00 h 0,00 h 6 W/m 15,2 km/h (3 Bft) 96,09 %
28.01.2020 18:00 4,4 C 3,9 C 3,2 C 82 % 999,5 hPa 0,0 l/m 0,00 h 0,00 h 0 W/m 17,8 km/h (3 Bft) 99,65 %
28.01.2020 19:00 4,5 C 3,9 C 2,9 C 81 % 999,8 hPa 0,0 l/m 0,00 h 0,00 h 0 W/m 20,1 km/h (4 Bft) 95,54 %
28.01.2020 20:00 4,3 C 3,4 C 2,8 C 87 % 1000,0 hPa 0,0 l/m 0,00 h 0,00 h 0 W/m 24,5 km/h (4 Bft) 97,57 %
28.01.2020 21:00 4,4 C 3,6 C 3,0 C 88 % 1000,0 hPa 0,0 l/m 0,00 h 0,00 h 0 W/m 26,2 km/h (4 Bft) 99,36 %
28.01.2020 22:00 4,5 C 3,8 C 3,1 C 87 % 1000,0 hPa 0,0 l/m 0,00 h 0,00 h 0 W/m 23,3 km/h (4 Bft) 95,80 %
28.01.2020 23:00 4,2 C 3,2 C 2,5 C 89 % 1000,2 hPa 0,0 l/m 0,00 h 0,53 h 0 W/m 17,3 km/h (3 Bft) 97,79 %
29.01.2020 00:00 3,9 C 3,1 C 2,5 C 92 % 1000,7 hPa 0,0 l/m 0,00 h 0,17 h 0 W/m 15,6 km/h (3 Bft) 98,44 %
29.01.2020 01:00 3,8 C 3,1 C 2,5 C 92 % 1001,3 hPa 0,0 l/m 0,00 h 0,00 h 0 W/m 17,1 km/h (3 Bft) 96,52 %
29.01.2020 02:00 3,5 C 2,7 C 2,2 C 93 % 1002,1 hPa 0,0 l/m 0,00 h 0,50 h 0 W/m 16,5 km/h (3 Bft) 97,79 %
29.01.2020 03:00 3,4 C 2,8 C 2,2 C 93 % 1003,0 hPa 0,0 l/m 0,00 h 0,00 h 0 W/m 19,2 km/h (3 Bft) 95,94 %
29.01.2020 04:00 3,7 C 3,2 C 2,7 C 93 % 1003,5 hPa 0,0 l/m 0,00 h 0,00 h 0 W/m 20,2 km/h (4 Bft) 96,43 %
29.01.2020 05:00 3,5 C 2,8 C 2,2 C 93 % 1004,2 hPa 0,0 l/m 0,00 h 0,00 h 0 W/m 19,1 km/h (3 Bft) 99,02 %
29.01.2020 06:00 3,3 C 2,8 C 2,1 C 92 % 1004,6 hPa 0,0 l/m 0,00 h 0,00 h 0 W/m 17,2 km/h (3 Bft) 94,73 %
29.01.2020 07:00 3,3 C 2,8 C 2,2 C 92 % 1005,2 hPa 0,0 l/m 0,00 h 0,00 h 0 W/m 20,4 km/h (4 Bft) 99,00 %
29.01.2020 08:00 3,6 C 3,3 C 2,6 C 91 % 1005,7 hPa 0,0 l/m 0,00 h 0,00 h 11 W/m 20,8 km/h (4 Bft) 98,33 %
29.01.2020 09:00 3,9 C 3,2 C 2,6 C 90 % 1006,3 hPa 0,0 l/m 0,00 h 0,33 h 23 W/m 18,8 km/h (3 Bft) 95,30 %
29.01.2020 10:00 4,3 C 4,0 C 3,3 C 91 % 1006,6 hPa 0,0 l/m 0,00 h 0,13 h 75 W/m 21,9 km/h (4 Bft) 98,94 %
29.01.2020 11:00 5,1 C 5,4 C 4,3 C 89 % 1007,2 hPa 0,0 l/m 0,10 h 0,00 h 121 W/m 20,2 km/h (4 Bft) 98,15 %
29.01.2020 12:00 5,7 C 6,2 C 5,3 C 86 % 1007,7 hPa 0,0 l/m 0,07 h 0,00 h 132 W/m 17,8 km/h (3 Bft) 94,06 %
29.01.2020 13:00 6,2 C 6,1 C 5,7 C 83 % 1007,9 hPa 0,0 l/m 0,00 h 0,00 h 108 W/m 19,7 km/h (3 Bft) 98,79 %
29.01.2020 14:00 5,8 C 5,8 C 4,0 C 86 % 1008,6 hPa 0,4 l/m 0,43 h 0,50 h 151 W/m 20,3 km/h (4 Bft) 97,86 %
29.01.2020 15:00 6,0 C 6,0 C 4,2 C 87 % 1009,4 hPa 0,0 l/m 0,60 h 0,17 h 141 W/m 19,1 km/h (3 Bft) 96,01 %
29.01.2020 16:00 5,9 C 5,5 C 4,4 C 87 % 1010,4 hPa 0,0 l/m 0,33 h 0,00 h 46 W/m 11,3 km/h (2 Bft) 97,58 %
29.01.2020 17:00 5,7 C 5,0 C 4,4 C 86 % 1011,2 hPa 0,0 l/m 0,00 h 0,00 h 5 W/m 12,8 km/h (3 Bft) 97,45 %
29.01.2020 18:00 5,7 C 5,0 C 4,4 C 84 % 1012,1 hPa 0,0 l/m 0,00 h 0,00 h 0 W/m 15,2 km/h (3 Bft) 97,01 %
29.01.2020 19:00 5,4 C 4,5 C 4,0 C 85 % 1012,6 hPa 0,0 l/m 0,00 h 0,00 h 0 W/m 8,9 km/h (2 Bft) 96,08 %
29.01.2020 20:00 5,0 C 4,2 C 3,6 C 85 % 1013,1 hPa 0,0 l/m 0,00 h 0,00 h 0 W/m 9,6 km/h (2 Bft) 96,55 %
29.01.2020 21:00 4,8 C 4,2 C 3,3 C 85 % 1013,2 hPa 0,0 l/m 0,00 h 0,00 h 0 W/m 15,0 km/h (3 Bft) 99,21 %
29.01.2020 22:00 4,8 C 4,3 C 3,7 C 87 % 1013,2 hPa 0,0 l/m 0,00 h 0,00 h 0 W/m 15,7 km/h (3 Bft) 96,73 %
29.01.2020 23:00 5,6 C 5,2 C 4,4 C 88 % 1012,9 hPa 0,0 l/m 0,00 h 0,00 h 0 W/m 20,4 km/h (4 Bft) 96,72 %
30.01.2020 00:00 6,3 C 5,7 C 5,0 C 89 % 1013,1 hPa 0,0 l/m 0,00 h 0,00 h 0 W/m 19,6 km/h (3 Bft) 99,19 %
30.01.2020 01:00 6,4 C 5,6 C 5,0 C 89 % 1013,0 hPa 0,0 l/m 0,00 h 0,00 h 0 W/m 19,2 km/h (3 Bft) 97,79 %
30.01.2020 02:00 6,2 C 5,6 C 4,8 C 89 % 1012,9 hPa 0,0 l/m 0,00 h 0,00 h 0 W/m 19,7 km/h (3 Bft) 96,23 %
30.01.2020 03:00 6,0 C 5,4 C 4,6 C 90 % 1012,6 hPa 0,0 l/m 0,00 h 0,00 h 0 W/m 22,3 km/h (4 Bft) 98,43 %
30.01.2020 04:00 6,3 C 5,7 C 5,0 C 90 % 1012,4 hPa 0,0 l/m 0,00 h 0,00 h 0 W/m 20,8 km/h (4 Bft) 98,08 %
30.01.2020 05:00 6,5 C 6,1 C 5,0 C 89 % 1012,4 hPa 0,0 l/m 0,00 h 0,00 h 0 W/m 16,8 km/h (3 Bft) 97,86 %
30.01.2020 06:00 6,4 C 5,7 C 5,0 C 88 % 1012,1 hPa 0,0 l/m 0,00 h 0,00 h 0 W/m 20,2 km/h (4 Bft) 96,80 %
30.01.2020 07:00 6,3 C 5,6 C 5,0 C 89 % 1012,1 hPa 0,0 l/m 0,00 h 0,00 h 0 W/m 22,7 km/h (4 Bft) 97,22 %
30.01.2020 08:00 6,5 C 6,0 C 5,2 C 89 % 1012,0 hPa 0,0 l/m 0,00 h 0,00 h 19 W/m 23,5 km/h (4 Bft) 98,22 %
30.01.2020 09:00 6,6 C 6,5 C 5,7 C 89 % 1011,8 hPa 0,0 l/m 0,10 h 0,00 h 67 W/m 18,7 km/h (3 Bft) 96,36 %
30.01.2020 10:00 7,1 C 7,5 C 6,5 C 88 % 1011,3 hPa 0,0 l/m 0,00 h 0,00 h 104 W/m 19,3 km/h (3 Bft) 97,65 %
30.01.2020 11:00 8,5 C 10,7 C 7,8 C 86 % 1010,8 hPa 0,0 l/m 1,00 h 0,00 h 223 W/m 19,8 km/h (4 Bft) 97,30 %
30.01.2020 12:00 10,0 C 11,0 C 9,5 C 81 % 1009,9 hPa 0,0 l/m 0,67 h 0,00 h 225 W/m 24,5 km/h (4 Bft) 98,29 %
30.01.2020 13:00 10,1 C 10,4 C 9,4 C 81 % 1008,7 hPa 0,0 l/m 0,03 h 0,00 h 164 W/m 23,7 km/h (4 Bft) 98,22 %
30.01.2020 14:00 10,4 C 11,3 C 9,6 C 80 % 1007,4 hPa 0,0 l/m 0,93 h 0,00 h 188 W/m 20,5 km/h (4 Bft) 95,80 %
30.01.2020 15:00 10,3 C 10,1 C 9,1 C 81 % 1005,9 hPa 0,0 l/m 0,40 h 0,00 h 120 W/m 22,6 km/h (4 Bft) 98,79 %
30.01.2020 16:00 9,8 C 8,9 C 8,4 C 82 % 1004,9 hPa 0,0 l/m 0,00 h 0,10 h 26 W/m 22,7 km/h (4 Bft) 97,65 %
30.01.2020 17:00 8,9 C 6,8 C 6,2 C 89 % 1004,6 hPa 1,2 l/m 0,00 h 0,57 h 0 W/m 17,2 km/h (3 Bft) 97,65 %
30.01.2020 18:00 8,9 C 7,8 C 7,2 C 94 % 1003,9 hPa 0,0 l/m 0,00 h 0,27 h 0 W/m 20,9 km/h (4 Bft) 97,51 %
30.01.2020 19:00 9,1 C 7,5 C 7,2 C 95 % 1003,6 hPa 0,4 l/m 0,00 h 0,63 h 0 W/m 23,0 km/h (4 Bft) 96,58 %
30.01.2020 20:00 9,2 C 8,1 C 7,6 C 97 % 1002,9 hPa 0,2 l/m 0,00 h 0,37 h 0 W/m 25,3 km/h (4 Bft) 99,00 %
30.01.2020 21:00 10,1 C 9,2 C 8,6 C 98 % 1002,6 hPa 0,0 l/m 0,00 h 0,03 h 0 W/m 21,4 km/h (4 Bft) 96,87 %
30.01.2020 22:00 11,0 C 9,9 C 9,3 C 99 % 1003,0 hPa 0,2 l/m 0,00 h 0,63 h 0 W/m 20,8 km/h (4 Bft) 96,72 %
30.01.2020 23:00 11,5 C 10,5 C 9,8 C 99 % 1002,8 hPa 0,0 l/m 0,00 h 0,03 h 0 W/m 17,8 km/h (3 Bft) 99,43 %
31.01.2020 00:00 11,9 C 11,0 C 10,3 C 99 % 1003,2 hPa 0,0 l/m 0,00 h 0,00 h 0 W/m 21,4 km/h (4 Bft) 96,83 %
31.01.2020 01:00 12,1 C 10,8 C 10,2 C 99 % 1004,2 hPa 0,2 l/m 0,00 h 0,53 h 0 W/m 18,3 km/h (3 Bft) 96,94 %
31.01.2020 02:00 11,7 C 10,5 C 9,9 C 98 % 1005,1 hPa 0,0 l/m 0,00 h 0,20 h 0 W/m 12,1 km/h (2 Bft) 97,65 %
31.01.2020 03:00 11,3 C 10,0 C 9,4 C 98 % 1006,1 hPa 0,2 l/m 0,00 h 0,00 h 0 W/m 16,3 km/h (3 Bft) 97,03 %
31.01.2020 04:00 11,0 C 9,6 C 9,0 C 96 % 1006,9 hPa 0,0 l/m 0,00 h 0,00 h 0 W/m 18,0 km/h (3 Bft) 96,23 %
31.01.2020 05:00 10,9 C 10,3 C 8,9 C 93 % 1007,7 hPa 0,0 l/m 0,00 h 0,00 h 0 W/m 17,0 km/h (3 Bft) 96,18 %
31.01.2020 06:00 10,8 C 10,0 C 9,2 C 90 % 1008,3 hPa 0,0 l/m 0,00 h 0,00 h 0 W/m 16,5 km/h (3 Bft) 98,57 %
31.01.2020 07:00 10,7 C 10,0 C 9,4 C 89 % 1009,0 hPa 0,0 l/m 0,00 h 0,00 h 0 W/m 17,2 km/h (3 Bft) 96,09 %
31.01.2020 08:00 10,6 C 10,0 C 9,4 C 87 % 1009,8 hPa 0,0 l/m 0,00 h 0,00 h 8 W/m 14,2 km/h (3 Bft) 98,72 %
31.01.2020 09:00 10,5 C 10,3 C 9,4 C 87 % 1010,3 hPa 0,0 l/m 0,00 h 0,00 h 52 W/m 13,7 km/h (3 Bft) 98,46 %
31.01.2020 10:00 10,9 C 10,9 C 10,1 C 86 % 1010,3 hPa 0,0 l/m 0,07 h 0,00 h 98 W/m 18,5 km/h (3 Bft) 95,58 %
31.01.2020 11:00 11,3 C 12,1 C 10,6 C 86 % 1010,6 hPa 0,0 l/m 0,47 h 0,00 h 191 W/m 21,6 km/h (4 Bft) 99,35 %
31.01.2020 12:00 11,8 C 12,2 C 11,7 C 87 % 1010,5 hPa 0,0 l/m 0,03 h 0,00 h 167 W/m 22,6 km/h (4 Bft) 98,14 %
31.01.2020 13:00 12,7 C 12,9 C 12,2 C 87 % 1010,2 hPa 0,0 l/m 0,00 h 0,00 h 147 W/m 22,8 km/h (4 Bft) 95,38 %
31.01.2020 14:00 13,1 C 12,8 C 12,2 C 88 % 1010,0 hPa 0,0 l/m 0,00 h 0,00 h 87 W/m 21,3 km/h (4 Bft) 99,79 %
31.01.2020 15:00 13,2 C 12,8 C 12,2 C 88 % 1009,8 hPa 0,0 l/m 0,00 h 0,00 h 48 W/m 21,2 km/h (4 Bft) 97,73 %
31.01.2020 16:00 13,1 C 12,4 C 11,8 C 88 % 1009,7 hPa 0,0 l/m 0,00 h 0,00 h 23 W/m 19,8 km/h (4 Bft) 96,09 %
31.01.2020 17:00 12,8 C 12,2 C 11,7 C 88 % 1010,1 hPa 0,0 l/m 0,00 h 0,00 h 4 W/m 21,1 km/h (4 Bft) 98,37 %
31.01.2020 18:00 12,7 C 12,0 C 11,2 C 87 % 1010,2 hPa 0,0 l/m 0,00 h 0,00 h 0 W/m 22,7 km/h (4 Bft) 98,55 %
31.01.2020 19:00 12,5 C 11,7 C 11,1 C 87 % 1009,6 hPa 0,0 l/m 0,00 h 0,00 h 0 W/m 27,6 km/h (4 Bft) 96,58 %
31.01.2020 20:00 12,2 C 11,4 C 10,7 C 87 % 1009,2 hPa 0,0 l/m 0,00 h 0,00 h 0 W/m 25,2 km/h (4 Bft) 97,07 %
31.01.2020 21:00 12,1 C 11,2 C 10,6 C 88 % 1008,9 hPa 0,0 l/m 0,00 h 0,00 h 0 W/m 25,7 km/h (4 Bft) 98,58 %
31.01.2020 22:00 11,9 C 11,2 C 10,6 C 89 % 1008,5 hPa 0,0 l/m 0,00 h 0,00 h 0 W/m 23,9 km/h (4 Bft) 96,11 %
31.01.2020 23:00 12,3 C 11,7 C 11,0 C 89 % 1008,2 hPa 0,0 l/m 0,00 h 0,00 h 0 W/m 30,6 km/h (5 Bft) 97,08 %
01.02.2020 00:00 12,6 C 11,7 C 11,1 C 89 % 1007,9 hPa 0,0 l/m 0,00 h 0,00 h 0 W/m 31,4 km/h (5 Bft) 98,30 %
01.02.2020 01:00 12,4 C 11,7 C 11,1 C 88 % 1007,6 hPa 0,0 l/m 0,00 h 0,00 h 0 W/m 28,2 km/h (4 Bft) 97,29 %
01.02.2020 02:00 12,3 C 11,7 C 11,1 C 87 % 1007,2 hPa 0,0 l/m 0,00 h 0,00 h 0 W/m 27,4 km/h (4 Bft) 97,72 %
01.02.2020 03:00 12,3 C 11,7 C 11,1 C 87 % 1006,6 hPa 0,0 l/m 0,00 h 0,00 h 0 W/m 28,3 km/h (4 Bft) 97,72 %
01.02.2020 04:00 12,3 C 11,7 C 11,1 C 87 % 1005,5 hPa 0,0 l/m 0,00 h 0,00 h 0 W/m 28,1 km/h (4 Bft) 98,00 %
01.02.2020 05:00 12,3 C 10,4 C 9,9 C 90 % 1005,0 hPa 0,6 l/m 0,00 h 0,80 h 0 W/m 22,9 km/h (4 Bft) 98,15 %
01.02.2020 06:00 11,6 C 10,0 C 9,4 C 95 % 1004,1 hPa 0,8 l/m 0,00 h 1,00 h 0 W/m 23,0 km/h (4 Bft) 96,06 %
01.02.2020 07:00 11,3 C 10,0 C 9,4 C 97 % 1003,4 hPa 2,8 l/m 0,00 h 1,00 h 0 W/m 20,3 km/h (4 Bft) 99,22 %
01.02.2020 08:00 11,4 C 10,1 C 9,8 C 98 % 1003,3 hPa 3,8 l/m 0,00 h 1,00 h 0 W/m 15,9 km/h (3 Bft) 98,65 %
01.02.2020 09:00 11,5 C 10,6 C 10,0 C 99 % 1003,0 hPa 2,4 l/m 0,00 h 1,00 h 10 W/m 14,7 km/h (3 Bft) 94,23 %
01.02.2020 10:00 11,3 C 10,2 C 9,6 C 99 % 1002,9 hPa 1,6 l/m 0,00 h 0,97 h 33 W/m 7,4 km/h (2 Bft) 99,79 %
01.02.2020 11:00 11,0 C 10,0 C 9,5 C 99 % 1003,2 hPa 0,2 l/m 0,00 h 0,33 h 48 W/m 4,4 km/h (1 Bft) 97,65 %
01.02.2020 12:00 11,2 C 10,6 C 10,0 C 99 % 1003,7 hPa 0,0 l/m 0,00 h 0,00 h 47 W/m 8,8 km/h (2 Bft) 95,73 %
01.02.2020 13:00 11,4 C 10,6 C 10,1 C 98 % 1004,0 hPa 0,0 l/m 0,00 h 0,00 h 87 W/m 16,5 km/h (3 Bft) 99,86 %
01.02.2020 14:00 11,6 C 11,5 C 10,7 C 95 % 1004,2 hPa 0,0 l/m 0,10 h 0,00 h 109 W/m 19,7 km/h (3 Bft) 97,79 %
01.02.2020 15:00 11,9 C 12,2 C 10,8 C 90 % 1004,4 hPa 0,0 l/m 0,30 h 0,00 h 95 W/m 17,0 km/h (3 Bft) 95,87 %
01.02.2020 16:00 11,5 C 9,9 C 9,4 C 92 % 1004,8 hPa 0,2 l/m 0,17 h 0,23 h 35 W/m 18,3 km/h (3 Bft) 98,08 %
01.02.2020 17:00 10,9 C 9,5 C 8,9 C 91 % 1005,2 hPa 0,0 l/m 0,00 h 0,00 h 6 W/m 18,5 km/h (3 Bft) 98,50 %
01.02.2020 18:00 10,6 C 9,7 C 9,1 C 87 % 1005,8 hPa 0,0 l/m 0,00 h 0,00 h 0 W/m 22,6 km/h (4 Bft) 95,80 %
01.02.2020 19:00 10,2 C 9,3 C 8,6 C 83 % 1006,7 hPa 0,0 l/m 0,00 h 0,00 h 0 W/m 19,5 km/h (3 Bft) 97,37 %
01.02.2020 20:00 9,6 C 8,5 C 7,9 C 82 % 1007,8 hPa 0,0 l/m 0,00 h 0,00 h 0 W/m 19,8 km/h (4 Bft) 98,27 %
01.02.2020 21:00 8,8 C 7,8 C 7,2 C 84 % 1008,7 hPa 0,0 l/m 0,00 h 0,00 h 0 W/m 20,3 km/h (4 Bft) 97,35 %
01.02.2020 22:00 8,4 C 7,4 C 7,0 C 86 % 1009,7 hPa 0,0 l/m 0,00 h 0,00 h 0 W/m 19,8 km/h (4 Bft) 97,15 %
01.02.2020 23:00 8,1 C 7,2 C 6,7 C 88 % 1010,2 hPa 0,0 l/m 0,00 h 0,00 h 0 W/m 20,7 km/h (4 Bft) 97,86 %
02.02.2020 00:00 8,0 C 7,3 C 6,8 C 88 % 1010,8 hPa 0,0 l/m 0,00 h 0,00 h 0 W/m 23,4 km/h (4 Bft) 98,47 %
02.02.2020 01:00 8,2 C 7,6 C 7,0 C 88 % 1011,2 hPa 0,0 l/m 0,00 h 0,00 h 0 W/m 21,9 km/h (4 Bft) 96,01 %
02.02.2020 02:00 8,4 C 7,8 C 7,2 C 88 % 1011,6 hPa 0,0 l/m 0,00 h 0,00 h 0 W/m 19,2 km/h (3 Bft) 97,24 %
02.02.2020 03:00 8,3 C 7,6 C 7,1 C 88 % 1011,9 hPa 0,0 l/m 0,00 h 0,00 h 0 W/m 20,0 km/h (4 Bft) 97,79 %
02.02.2020 04:00 8,2 C 7,2 C 6,8 C 89 % 1011,8 hPa 0,0 l/m 0,00 h 0,00 h 0 W/m 17,6 km/h (3 Bft) 95,56 %
02.02.2020 05:00 7,8 C 7,2 C 6,7 C 90 % 1011,5 hPa 0,0 l/m 0,00 h 0,00 h 0 W/m 17,0 km/h (3 Bft) 97,72 %
02.02.2020 06:00 7,6 C 6,7 C 6,7 C 89 % 1011,1 hPa 0,0 l/m 0,00 h 0,00 h 0 W/m 22,4 km/h (4 Bft) 98,50 %
02.02.2020 07:00 7,5 C 6,7 C 6,2 C 89 % 1010,4 hPa 0,0 l/m 0,00 h 0,00 h 0 W/m 14,6 km/h (3 Bft) 97,72 %
02.02.2020 08:00 7,3 C 5,8 C 5,2 C 91 % 1009,5 hPa 0,6 l/m 0,00 h 0,90 h 9 W/m 14,6 km/h (3 Bft) 96,29 %
02.02.2020 09:00 6,8 C 5,5 C 5,0 C 94 % 1008,6 hPa 1,0 l/m 0,00 h 1,00 h 18 W/m 16,2 km/h (3 Bft) 96,97 %
02.02.2020 10:00 6,5 C 5,3 C 5,0 C 96 % 1007,4 hPa 1,2 l/m 0,00 h 0,93 h 38 W/m 18,7 km/h (3 Bft) 97,87 %
02.02.2020 11:00 6,5 C 5,6 C 5,2 C 97 % 1006,1 hPa 1,2 l/m 0,00 h 0,73 h 45 W/m 17,3 km/h (3 Bft) 96,51 %
02.02.2020 12:00 7,1 C 6,5 C 6,2 C 99 % 1004,9 hPa 0,6 l/m 0,00 h 0,43 h 53 W/m 7,9 km/h (2 Bft) 97,33 %
02.02.2020 13:00 9,6 C 9,5 C 8,8 C 100 % 1004,2 hPa 0,2 l/m 0,00 h 0,00 h 58 W/m 16,1 km/h (3 Bft) 97,41 %
02.02.2020 14:00 11,7 C 11,0 C 10,0 C 100 % 1005,0 hPa 0,2 l/m 0,00 h 0,73 h 35 W/m 17,7 km/h (3 Bft) 97,63 %
02.02.2020 15:00 11,8 C 11,3 C 10,2 C 100 % 1006,0 hPa 0,0 l/m 0,00 h 0,03 h 33 W/m 21,3 km/h (4 Bft) 97,26 %
02.02.2020 16:00 12,1 C 11,9 C 10,6 C 96 % 1007,2 hPa 0,0 l/m 0,00 h 0,00 h 31 W/m 21,9 km/h (4 Bft) 97,44 %
02.02.2020 17:00 12,3 C 11,7 C 10,6 C 90 % 1008,0 hPa 0,0 l/m 0,00 h 0,00 h 6 W/m 24,0 km/h (4 Bft) 98,69 %
02.02.2020 18:00 12,0 C 11,3 C 10,5 C 88 % 1009,1 hPa 0,0 l/m 0,00 h 0,00 h 0 W/m 20,2 km/h (4 Bft) 95,29 %
02.02.2020 19:00 11,8 C 11,1 C 10,1 C 88 % 1010,0 hPa 0,0 l/m 0,00 h 0,00 h 0 W/m 18,3 km/h (3 Bft) 99,15 %
02.02.2020 20:00 11,6 C 10,7 C 10,0 C 89 % 1010,5 hPa 0,0 l/m 0,00 h 0,00 h 0 W/m 19,0 km/h (3 Bft) 98,93 %
02.02.2020 21:00 11,3 C 10,6 C 9,9 C 89 % 1010,7 hPa 0,0 l/m 0,00 h 0,00 h 0 W/m 18,2 km/h (3 Bft) 94,88 %
02.02.2020 22:00 11,1 C 10,3 C 9,4 C 89 % 1010,7 hPa 0,0 l/m 0,00 h 0,00 h 0 W/m 18,0 km/h (3 Bft) 99,71 %
02.02.2020 23:00 10,8 C 10,0 C 9,4 C 89 % 1010,2 hPa 0,0 l/m 0,00 h 0,00 h 0 W/m 20,0 km/h (4 Bft) 97,86 %
Min-Datum _ 29.01.20 28.01.20 28.01.20 28.01.20 28.01.20 - - - - 27.01.20 28.01.20
_ Min-Zeit 06:46 14:24 14:26 19:06 08:06 - - - - 05:48 00:02
Minimum _ 3,2 C 2,2 C 1,7 C 79 % 990,7 hPa - - - - 0,0 km/h (0 Bft) 15,38 %
Max-Datum _ 31.01.20 01.02.20 31.01.20 30.01.20 27.01.20 01.02.20 28.01.20 28.01.20 28.01.20 28.01.20 27.01.20
_ Max-Zeit 15:08 15:14 12:30 23:38 00:02 08:00 12:52 00:08 13:28 03:08 00:18
Maximum _ 13,3 C 14,4 C 12,2 C 100 % 1013,5 hPa 3,8 l/m 0,03 h 0,07 h 417 W/m 57,9 km/h
O (7 Bft)
100,00 %
Durchschnitt _ 8,2 C 7,5 C 6,8 C 91 % 1006,0 hPa #30,4 l/m #6:58 h #29:37 h 68 W/m 19,6 km/h (3 Bft) 97,38 %
© 2020 W. Hausmann